Sweet Briar, Virginia
Current Conditions -  °F | °C
As of 4:54 AM on Monday 22 Dec 2014 (Local Time) from KLYH Reporting Station
Overcast Overcast  
Wind Chill: 28°   Ceiling: 2900
Heat Index: 35°   Visibility: 10mi
Dew Point: 28°   Wind: 9mph
Humidity: 76%   Direction: 40°NE
Pressure: 30.2"   Gusts: NA
Location:  37.55°N, 79.07°W
Report Text: KLYH 220954Z AUTO 04008KT 10SM OVC029 02/M02 A3020 RMK AO2 SLP232 T00171022
Loading
Personal Weather Stations






























Interactive Weather Map New forecast layout! Learn more

10-Day Weather Forecast

Advertisements
Track Severe Weather on mobile